sensor_id;sensor_type;location;lat;lon;timestamp;pressure;altitude;pressure_sealevel;temperature;humidity
49779;BME280;36217;60.232;24.776;2023-01-28T00:01:40;101956.55;;;-4.10;100.00
49779;BME280;36217;60.232;24.776;2023-01-28T00:04:07;101951.13;;;-3.82;100.00
49779;BME280;36217;60.232;24.776;2023-01-28T00:06:34;101945.62;;;-4.03;100.00
49779;BME280;36217;60.232;24.776;2023-01-28T00:09:01;101942.95;;;-4.07;100.00
49779;BME280;36217;60.232;24.776;2023-01-28T00:11:28;101942.46;;;-4.09;100.00
49779;BME280;36217;60.232;24.776;2023-01-28T00:13:55;101938.29;;;-4.06;100.00
49779;BME280;36217;60.232;24.776;2023-01-28T00:16:22;101932.10;;;-4.02;100.00
49779;BME280;36217;60.232;24.776;2023-01-28T00:18:49;101928.64;;;-4.01;100.00
49779;BME280;36217;60.232;24.776;2023-01-28T00:21:17;101927.00;;;-4.04;100.00
49779;BME280;36217;60.232;24.776;2023-01-28T00:23:49;101929.15;;;-4.03;100.00
49779;BME280;36217;60.232;24.776;2023-01-28T00:26:17;101925.46;;;-3.97;100.00
49779;BME280;36217;60.232;24.776;2023-01-28T00:28:45;101921.71;;;-3.76;100.00
49779;BME280;36217;60.232;24.776;2023-01-28T00:31:15;101918.36;;;-3.87;100.00
49779;BME280;36217;60.232;24.776;2023-01-28T00:33:43;101917.89;;;-3.70;100.00
49779;BME280;36217;60.232;24.776;2023-01-28T00:36:11;101917.27;;;-4.16;100.00
49779;BME280;36217;60.232;24.776;2023-01-28T00:38:39;101914.12;;;-4.12;100.00
49779;BME280;36217;60.232;24.776;2023-01-28T00:41:07;101910.83;;;-3.75;100.00
49779;BME280;36217;60.232;24.776;2023-01-28T00:43:35;101910.24;;;-3.80;100.00
49779;BME280;36217;60.232;24.776;2023-01-28T00:46:02;101905.35;;;-3.91;100.00
49779;BME280;36217;60.232;24.776;2023-01-28T00:48:29;101902.89;;;-3.69;100.00
49779;BME280;36217;60.232;24.776;2023-01-28T00:50:56;101896.00;;;-3.59;100.00
49779;BME280;36217;60.232;24.776;2023-01-28T00:53:23;101890.59;;;-3.59;100.00
49779;BME280;36217;60.232;24.776;2023-01-28T00:55:51;101894.47;;;-3.50;100.00
49779;BME280;36217;60.232;24.776;2023-01-28T00:58:18;101892.76;;;-3.40;100.00
49779;BME280;36217;60.232;24.776;2023-01-28T01:00:46;101887.93;;;-3.30;100.00
49779;BME280;36217;60.232;24.776;2023-01-28T01:03:13;101886.78;;;-3.33;100.00
49779;BME280;36217;60.232;24.776;2023-01-28T01:05:40;101886.10;;;-3.27;100.00
49779;BME280;36217;60.232;24.776;2023-01-28T01:08:07;101879.50;;;-3.24;100.00
49779;BME280;36217;60.232;24.776;2023-01-28T01:10:36;101879.98;;;-3.43;100.00
49779;BME280;36217;60.232;24.776;2023-01-28T01:13:04;101871.38;;;-3.09;100.00
49779;BME280;36217;60.232;24.776;2023-01-28T01:15:31;101865.64;;;-3.02;100.00
49779;BME280;36217;60.232;24.776;2023-01-28T01:17:58;101867.38;;;-3.18;100.00
49779;BME280;36217;60.232;24.776;2023-01-28T01:20:27;101861.64;;;-2.94;100.00
49779;BME280;36217;60.232;24.776;2023-01-28T01:22:55;101866.11;;;-2.99;100.00
49779;BME280;36217;60.232;24.776;2023-01-28T01:25:22;101863.12;;;-3.15;100.00
49779;BME280;36217;60.232;24.776;2023-01-28T01:27:49;101860.34;;;-3.00;100.00
49779;BME280;36217;60.232;24.776;2023-01-28T01:30:16;101859.71;;;-2.96;100.00
49779;BME280;36217;60.232;24.776;2023-01-28T01:32:44;101853.22;;;-3.10;100.00
49779;BME280;36217;60.232;24.776;2023-01-28T01:35:11;101854.54;;;-2.54;100.00
49779;BME280;36217;60.232;24.776;2023-01-28T01:37:38;101852.91;;;-2.68;100.00
49779;BME280;36217;60.232;24.776;2023-01-28T01:40:07;101852.97;;;-2.98;100.00
49779;BME280;36217;60.232;24.776;2023-01-28T01:42:34;101848.08;;;-2.83;100.00
49779;BME280;36217;60.232;24.776;2023-01-28T01:45:03;101846.62;;;-2.61;100.00
49779;BME280;36217;60.232;24.776;2023-01-28T01:47:37;101836.23;;;-2.86;100.00
49779;BME280;36217;60.232;24.776;2023-01-28T01:50:10;101829.95;;;-2.75;100.00
49779;BME280;36217;60.232;24.776;2023-01-28T01:52:41;101825.32;;;-2.75;100.00
49779;BME280;36217;60.232;24.776;2023-01-28T01:55:13;101822.96;;;-2.83;100.00
49779;BME280;36217;60.232;24.776;2023-01-28T01:57:43;101825.55;;;-2.78;100.00
49779;BME280;36217;60.232;24.776;2023-01-28T02:00:12;101824.71;;;-2.67;100.00
49779;BME280;36217;60.232;24.776;2023-01-28T02:02:41;101817.98;;;-2.53;100.00
49779;BME280;36217;60.232;24.776;2023-01-28T02:05:11;101822.26;;;-2.38;100.00
49779;BME280;36217;60.232;24.776;2023-01-28T02:07:39;101820.08;;;-2.70;100.00
49779;BME280;36217;60.232;24.776;2023-01-28T02:10:08;101814.78;;;-2.92;100.00
49779;BME280;36217;60.232;24.776;2023-01-28T02:12:39;101818.78;;;-2.51;100.00
49779;BME280;36217;60.232;24.776;2023-01-28T02:15:11;101819.27;;;-2.53;100.00
49779;BME280;36217;60.232;24.776;2023-01-28T02:17:40;101815.02;;;-2.74;100.00
49779;BME280;36217;60.232;24.776;2023-01-28T02:20:10;101811.10;;;-2.43;100.00
49779;BME280;36217;60.232;24.776;2023-01-28T02:23:51;101802.73;;;-2.41;100.00
49779;BME280;36217;60.232;24.776;2023-01-28T02:27:06;101799.34;;;-2.20;100.00
49779;BME280;36217;60.232;24.776;2023-01-28T02:29:42;101795.27;;;-2.40;100.00
49779;BME280;36217;60.232;24.776;2023-01-28T02:32:16;101786.83;;;-2.34;100.00
49779;BME280;36217;60.232;24.776;2023-01-28T02:34:46;101784.62;;;-2.28;100.00
49779;BME280;36217;60.232;24.776;2023-01-28T02:37:16;101786.45;;;-2.57;100.00
49779;BME280;36217;60.232;24.776;2023-01-28T02:39:48;101779.76;;;-2.33;100.00
49779;BME280;36217;60.232;24.776;2023-01-28T02:42:19;101772.61;;;-2.29;100.00
49779;BME280;36217;60.232;24.776;2023-01-28T02:44:48;101770.01;;;-2.22;100.00
49779;BME280;36217;60.232;24.776;2023-01-28T02:47:15;101769.23;;;-2.22;100.00
49779;BME280;36217;60.232;24.776;2023-01-28T02:49:44;101770.00;;;-2.14;100.00
49779;BME280;36217;60.232;24.776;2023-01-28T02:52:23;101764.78;;;-2.21;100.00
49779;BME280;36217;60.232;24.776;2023-01-28T02:54:57;101765.54;;;-2.21;100.00
49779;BME280;36217;60.232;24.776;2023-01-28T02:57:33;101769.33;;;-2.19;100.00
49779;BME280;36217;60.232;24.776;2023-01-28T03:00:06;101765.94;;;-2.26;100.00
49779;BME280;36217;60.232;24.776;2023-01-28T03:02:43;101762.11;;;-1.84;100.00
49779;BME280;36217;60.232;24.776;2023-01-28T03:05:16;101760.01;;;-2.15;100.00
49779;BME280;36217;60.232;24.776;2023-01-28T03:07:46;101759.74;;;-2.07;100.00
49779;BME280;36217;60.232;24.776;2023-01-28T03:10:17;101753.41;;;-2.17;100.00
49779;BME280;36217;60.232;24.776;2023-01-28T03:12:49;101754.89;;;-2.17;100.00
49779;BME280;36217;60.232;24.776;2023-01-28T03:15:19;101753.26;;;-2.18;100.00
49779;BME280;36217;60.232;24.776;2023-01-28T03:17:52;101750.58;;;-2.12;100.00
49779;BME280;36217;60.232;24.776;2023-01-28T03:20:21;101747.31;;;-2.24;100.00
49779;BME280;36217;60.232;24.776;2023-01-28T03:22:52;101744.13;;;-2.34;100.00
49779;BME280;36217;60.232;24.776;2023-01-28T03:25:25;101736.86;;;-2.06;100.00
49779;BME280;36217;60.232;24.776;2023-01-28T03:27:57;101730.54;;;-2.01;100.00
49779;BME280;36217;60.232;24.776;2023-01-28T03:30:30;101726.15;;;-2.15;100.00
49779;BME280;36217;60.232;24.776;2023-01-28T03:33:00;101718.96;;;-2.10;100.00
49779;BME280;36217;60.232;24.776;2023-01-28T03:35:29;101708.63;;;-2.16;100.00
49779;BME280;36217;60.232;24.776;2023-01-28T03:37:57;101708.11;;;-2.34;100.00
49779;BME280;36217;60.232;24.776;2023-01-28T03:40:24;101707.01;;;-2.12;100.00
49779;BME280;36217;60.232;24.776;2023-01-28T03:42:51;101703.31;;;-1.88;100.00
49779;BME280;36217;60.232;24.776;2023-01-28T03:45:19;101699.44;;;-2.03;100.00
49779;BME280;36217;60.232;24.776;2023-01-28T03:47:46;101694.10;;;-1.88;100.00
49779;BME280;36217;60.232;24.776;2023-01-28T03:50:13;101693.10;;;-1.95;100.00
49779;BME280;36217;60.232;24.776;2023-01-28T03:52:40;101687.82;;;-1.78;100.00
49779;BME280;36217;60.232;24.776;2023-01-28T03:55:08;101685.06;;;-2.09;100.00
49779;BME280;36217;60.232;24.776;2023-01-28T03:57:35;101683.96;;;-2.20;100.00
49779;BME280;36217;60.232;24.776;2023-01-28T04:00:03;101678.82;;;-1.76;100.00
49779;BME280;36217;60.232;24.776;2023-01-28T04:02:30;101674.55;;;-1.80;100.00
49779;BME280;36217;60.232;24.776;2023-01-28T04:04:57;101675.67;;;-1.68;100.00
49779;BME280;36217;60.232;24.776;2023-01-28T04:07:25;101674.51;;;-2.36;100.00
49779;BME280;36217;60.232;24.776;2023-01-28T04:09:52;101661.52;;;-1.77;100.00
49779;BME280;36217;60.232;24.776;2023-01-28T04:12:19;101659.81;;;-1.87;100.00
49779;BME280;36217;60.232;24.776;2023-01-28T04:14:46;101658.32;;;-1.73;100.00
49779;BME280;36217;60.232;24.776;2023-01-28T04:17:14;101652.34;;;-1.66;100.00
49779;BME280;36217;60.232;24.776;2023-01-28T04:19:41;101643.47;;;-1.75;100.00
49779;BME280;36217;60.232;24.776;2023-01-28T04:22:10;101638.69;;;-1.87;100.00
49779;BME280;36217;60.232;24.776;2023-01-28T04:24:37;101637.76;;;-1.55;100.00
49779;BME280;36217;60.232;24.776;2023-01-28T04:27:04;101636.54;;;-2.12;100.00
49779;BME280;36217;60.232;24.776;2023-01-28T04:29:32;101633.32;;;-2.03;100.00
49779;BME280;36217;60.232;24.776;2023-01-28T04:31:59;101633.23;;;-1.96;100.00
49779;BME280;36217;60.232;24.776;2023-01-28T04:34:26;101632.70;;;-1.77;100.00
49779;BME280;36217;60.232;24.776;2023-01-28T04:36:53;101626.29;;;-2.19;100.00
49779;BME280;36217;60.232;24.776;2023-01-28T04:39:21;101618.09;;;-1.67;100.00
49779;BME280;36217;60.232;24.776;2023-01-28T04:41:48;101620.59;;;-1.91;100.00
49779;BME280;36217;60.232;24.776;2023-01-28T04:44:15;101621.35;;;-1.91;100.00
49779;BME280;36217;60.232;24.776;2023-01-28T04:46:42;101614.56;;;-2.03;100.00
49779;BME280;36217;60.232;24.776;2023-01-28T04:49:10;101613.77;;;-1.51;100.00
49779;BME280;36217;60.232;24.776;2023-01-28T04:51:37;101605.89;;;-2.00;100.00
49779;BME280;36217;60.232;24.776;2023-01-28T04:54:04;101605.83;;;-1.95;100.00
49779;BME280;36217;60.232;24.776;2023-01-28T04:56:32;101601.40;;;-1.78;100.00
49779;BME280;36217;60.232;24.776;2023-01-28T04:58:59;101602.66;;;-1.98;100.00
49779;BME280;36217;60.232;24.776;2023-01-28T05:01:26;101598.10;;;-1.41;100.00
49779;BME280;36217;60.232;24.776;2023-01-28T05:03:53;101595.83;;;-1.65;100.00
49779;BME280;36217;60.232;24.776;2023-01-28T05:06:20;101588.35;;;-1.71;100.00
49779;BME280;36217;60.232;24.776;2023-01-28T05:08:48;101581.82;;;-1.56;100.00
49779;BME280;36217;60.232;24.776;2023-01-28T05:11:15;101577.37;;;-1.78;100.00
49779;BME280;36217;60.232;24.776;2023-01-28T05:13:42;101573.40;;;-1.55;100.00
49779;BME280;36217;60.232;24.776;2023-01-28T05:16:09;101567.49;;;-1.74;100.00
49779;BME280;36217;60.232;24.776;2023-01-28T05:18:37;101566.20;;;-1.78;100.00
49779;BME280;36217;60.232;24.776;2023-01-28T05:21:04;101563.11;;;-1.70;100.00
49779;BME280;36217;60.232;24.776;2023-01-28T05:23:31;101568.55;;;-1.63;100.00
49779;BME280;36217;60.232;24.776;2023-01-28T05:25:58;101565.35;;;-1.65;100.00
49779;BME280;36217;60.232;24.776;2023-01-28T05:28:26;101562.18;;;-1.74;100.00
49779;BME280;36217;60.232;24.776;2023-01-28T05:30:53;101561.03;;;-1.70;100.00
49779;BME280;36217;60.232;24.776;2023-01-28T05:33:20;101563.48;;;-1.59;100.00
49779;BME280;36217;60.232;24.776;2023-01-28T05:35:47;101555.57;;;-1.69;100.00
49779;BME280;36217;60.232;24.776;2023-01-28T05:38:15;101548.94;;;-1.83;100.00
49779;BME280;36217;60.232;24.776;2023-01-28T05:40:42;101541.82;;;-1.57;100.00
49779;BME280;36217;60.232;24.776;2023-01-28T05:43:09;101541.97;;;-1.46;100.00
49779;BME280;36217;60.232;24.776;2023-01-28T05:45:36;101537.51;;;-1.60;100.00
49779;BME280;36217;60.232;24.776;2023-01-28T05:48:04;101534.50;;;-1.75;100.00
49779;BME280;36217;60.232;24.776;2023-01-28T05:50:31;101533.39;;;-1.54;100.00
49779;BME280;36217;60.232;24.776;2023-01-28T05:52:58;101528.83;;;-1.65;100.00
49779;BME280;36217;60.232;24.776;2023-01-28T05:55:25;101522.44;;;-1.47;100.00
49779;BME280;36217;60.232;24.776;2023-01-28T05:57:53;101520.51;;;-1.67;100.00
49779;BME280;36217;60.232;24.776;2023-01-28T06:00:20;101524.33;;;-1.51;100.00
49779;BME280;36217;60.232;24.776;2023-01-28T06:02:50;101521.39;;;-1.57;100.00
49779;BME280;36217;60.232;24.776;2023-01-28T06:05:17;101522.85;;;-1.79;100.00
49779;BME280;36217;60.232;24.776;2023-01-28T06:07:44;101520.10;;;-1.48;100.00
49779;BME280;36217;60.232;24.776;2023-01-28T06:10:12;101519.62;;;-1.67;100.00
49779;BME280;36217;60.232;24.776;2023-01-28T06:12:39;101515.53;;;-1.64;100.00
49779;BME280;36217;60.232;24.776;2023-01-28T06:15:07;101515.52;;;-1.67;100.00
49779;BME280;36217;60.232;24.776;2023-01-28T06:17:34;101516.86;;;-1.52;100.00
49779;BME280;36217;60.232;24.776;2023-01-28T06:20:01;101511.40;;;-1.29;100.00
49779;BME280;36217;60.232;24.776;2023-01-28T06:22:28;101507.70;;;-1.59;100.00
49779;BME280;36217;60.232;24.776;2023-01-28T06:24:56;101512.51;;;-1.65;100.00
49779;BME280;36217;60.232;24.776;2023-01-28T06:27:23;101511.07;;;-1.66;100.00
49779;BME280;36217;60.232;24.776;2023-01-28T06:29:50;101502.96;;;-1.56;100.00
49779;BME280;36217;60.232;24.776;2023-01-28T06:32:17;101498.23;;;-1.62;100.00
49779;BME280;36217;60.232;24.776;2023-01-28T06:34:44;101498.75;;;-1.64;100.00
49779;BME280;36217;60.232;24.776;2023-01-28T06:37:12;101495.31;;;-1.57;100.00
49779;BME280;36217;60.232;24.776;2023-01-28T06:39:39;101491.35;;;-0.99;100.00
49779;BME280;36217;60.232;24.776;2023-01-28T06:42:06;101487.39;;;-1.53;100.00
49779;BME280;36217;60.232;24.776;2023-01-28T06:44:34;101485.12;;;-1.17;100.00
49779;BME280;36217;60.232;24.776;2023-01-28T06:47:01;101481.49;;;-1.39;100.00
49779;BME280;36217;60.232;24.776;2023-01-28T06:49:28;101471.91;;;-1.54;100.00
49779;BME280;36217;60.232;24.776;2023-01-28T06:51:55;101475.85;;;-1.43;100.00
49779;BME280;36217;60.232;24.776;2023-01-28T06:54:23;101474.26;;;-1.53;100.00
49779;BME280;36217;60.232;24.776;2023-01-28T06:56:50;101465.47;;;-1.46;100.00
49779;BME280;36217;60.232;24.776;2023-01-28T06:59:17;101460.10;;;-0.85;100.00
49779;BME280;36217;60.232;24.776;2023-01-28T07:01:44;101461.22;;;-1.46;100.00
49779;BME280;36217;60.232;24.776;2023-01-28T07:04:11;101458.36;;;-1.44;100.00
49779;BME280;36217;60.232;24.776;2023-01-28T07:06:39;101450.79;;;-1.46;100.00
49779;BME280;36217;60.232;24.776;2023-01-28T07:09:06;101446.90;;;-1.63;100.00
49779;BME280;36217;60.232;24.776;2023-01-28T07:11:33;101442.35;;;-1.37;100.00
49779;BME280;36217;60.232;24.776;2023-01-28T07:14:01;101438.51;;;-1.54;100.00
49779;BME280;36217;60.232;24.776;2023-01-28T07:16:28;101431.18;;;-1.53;100.00
49779;BME280;36217;60.232;24.776;2023-01-28T07:18:55;101432.05;;;-1.41;100.00
49779;BME280;36217;60.232;24.776;2023-01-28T07:21:22;101424.68;;;-1.47;100.00
49779;BME280;36217;60.232;24.776;2023-01-28T07:23:49;101418.74;;;-1.36;100.00
49779;BME280;36217;60.232;24.776;2023-01-28T07:26:17;101412.09;;;-1.34;100.00
49779;BME280;36217;60.232;24.776;2023-01-28T07:28:44;101411.90;;;-1.45;100.00
49779;BME280;36217;60.232;24.776;2023-01-28T07:31:11;101408.29;;;-1.41;100.00
49779;BME280;36217;60.232;24.776;2023-01-28T07:33:38;101399.30;;;-1.34;100.00
49779;BME280;36217;60.232;24.776;2023-01-28T07:36:06;101390.13;;;-1.30;100.00
49779;BME280;36217;60.232;24.776;2023-01-28T07:38:34;101384.89;;;-1.27;100.00
49779;BME280;36217;60.232;24.776;2023-01-28T07:41:01;101374.84;;;-1.30;100.00
49779;BME280;36217;60.232;24.776;2023-01-28T07:43:28;101371.48;;;-1.35;100.00
49779;BME280;36217;60.232;24.776;2023-01-28T07:45:59;101364.03;;;-1.19;100.00
49779;BME280;36217;60.232;24.776;2023-01-28T07:48:25;101362.05;;;-1.42;100.00
49779;BME280;36217;60.232;24.776;2023-01-28T07:50:53;101361.09;;;-1.18;100.00
49779;BME280;36217;60.232;24.776;2023-01-28T07:53:24;101356.51;;;-1.23;100.00
49779;BME280;36217;60.232;24.776;2023-01-28T07:55:51;101346.61;;;-1.25;100.00
49779;BME280;36217;60.232;24.776;2023-01-28T07:58:18;101349.13;;;-1.30;100.00
49779;BME280;36217;60.232;24.776;2023-01-28T08:00:45;101344.21;;;-1.47;100.00
49779;BME280;36217;60.232;24.776;2023-01-28T08:03:13;101348.09;;;-1.34;100.00
49779;BME280;36217;60.232;24.776;2023-01-28T08:05:43;101348.24;;;-1.13;100.00
49779;BME280;36217;60.232;24.776;2023-01-28T08:08:11;101336.57;;;-1.12;100.00
49779;BME280;36217;60.232;24.776;2023-01-28T08:10:38;101327.02;;;-1.11;100.00
49779;BME280;36217;60.232;24.776;2023-01-28T08:13:08;101322.16;;;-1.16;100.00
49779;BME280;36217;60.232;24.776;2023-01-28T08:15:35;101321.67;;;-1.22;100.00
49779;BME280;36217;60.232;24.776;2023-01-28T08:18:05;101317.71;;;-1.19;100.00
49779;BME280;36217;60.232;24.776;2023-01-28T08:20:33;101316.91;;;-1.42;100.00
49779;BME280;36217;60.232;24.776;2023-01-28T08:23:05;101318.04;;;-1.25;100.00
49779;BME280;36217;60.232;24.776;2023-01-28T08:25:32;101316.27;;;-0.88;100.00
49779;BME280;36217;60.232;24.776;2023-01-28T08:28:00;101317.39;;;-1.05;100.00
49779;BME280;36217;60.232;24.776;2023-01-28T08:31:47;101314.54;;;-1.44;100.00
49779;BME280;36217;60.232;24.776;2023-01-28T08:34:15;101316.14;;;-1.00;100.00
49779;BME280;36217;60.232;24.776;2023-01-28T08:36:42;101306.38;;;-1.00;100.00
49779;BME280;36217;60.232;24.776;2023-01-28T08:39:09;101313.64;;;-0.92;100.00
49779;BME280;36217;60.232;24.776;2023-01-28T08:41:36;101314.51;;;-0.92;100.00
49779;BME280;36217;60.232;24.776;2023-01-28T08:44:04;101313.77;;;-0.91;100.00
49779;BME280;36217;60.232;24.776;2023-01-28T08:46:31;101311.15;;;-0.85;100.00
49779;BME280;36217;60.232;24.776;2023-01-28T08:49:18;101304.49;;;-0.68;100.00
49779;BME280;36217;60.232;24.776;2023-01-28T08:51:45;101300.19;;;-1.14;100.00
49779;BME280;36217;60.232;24.776;2023-01-28T08:54:13;101295.44;;;-0.81;100.00
49779;BME280;36217;60.232;24.776;2023-01-28T08:56:40;101301.97;;;-1.04;100.00
49779;BME280;36217;60.232;24.776;2023-01-28T08:59:07;101296.44;;;-0.89;100.00
49779;BME280;36217;60.232;24.776;2023-01-28T09:01:34;101294.10;;;-0.87;100.00
49779;BME280;36217;60.232;24.776;2023-01-28T09:04:01;101287.90;;;-0.54;100.00
49779;BME280;36217;60.232;24.776;2023-01-28T09:06:29;101274.53;;;-1.01;100.00
49779;BME280;36217;60.232;24.776;2023-01-28T09:08:56;101278.54;;;-0.94;100.00
49779;BME280;36217;60.232;24.776;2023-01-28T09:11:23;101272.15;;;-1.23;100.00
49779;BME280;36217;60.232;24.776;2023-01-28T09:13:50;101271.25;;;-0.96;100.00
49779;BME280;36217;60.232;24.776;2023-01-28T09:16:18;101267.48;;;-0.88;100.00
49779;BME280;36217;60.232;24.776;2023-01-28T09:18:45;101264.91;;;-0.83;100.00
49779;BME280;36217;60.232;24.776;2023-01-28T09:21:12;101269.98;;;-0.83;100.00
49779;BME280;36217;60.232;24.776;2023-01-28T09:23:39;101263.76;;;-0.84;100.00
49779;BME280;36217;60.232;24.776;2023-01-28T09:26:06;101268.81;;;-0.65;100.00
49779;BME280;36217;60.232;24.776;2023-01-28T09:28:34;101252.77;;;-0.79;100.00
49779;BME280;36217;60.232;24.776;2023-01-28T09:31:02;101255.80;;;-0.66;100.00
49779;BME280;36217;60.232;24.776;2023-01-28T09:33:30;101246.41;;;-0.93;100.00
49779;BME280;36217;60.232;24.776;2023-01-28T09:35:59;101241.24;;;-0.76;100.00
49779;BME280;36217;60.232;24.776;2023-01-28T09:38:28;101239.13;;;1.09;100.00
49779;BME280;36217;60.232;24.776;2023-01-28T09:40:56;101233.57;;;0.64;100.00
49779;BME280;36217;60.232;24.776;2023-01-28T09:43:45;101234.31;;;0.33;100.00
49779;BME280;36217;60.232;24.776;2023-01-28T09:46:16;101228.41;;;0.50;100.00
49779;BME280;36217;60.232;24.776;2023-01-28T09:48:45;101214.55;;;-0.06;100.00
49779;BME280;36217;60.232;24.776;2023-01-28T09:51:27;101222.19;;;-0.26;100.00
49779;BME280;36217;60.232;24.776;2023-01-28T09:53:57;101197.70;;;-0.12;100.00
49779;BME280;36217;60.232;24.776;2023-01-28T09:56:30;101208.88;;;-0.25;100.00
49779;BME280;36217;60.232;24.776;2023-01-28T09:59:05;101196.65;;;-0.36;100.00
49779;BME280;36217;60.232;24.776;2023-01-28T10:01:44;101195.11;;;-0.38;100.00
49779;BME280;36217;60.232;24.776;2023-01-28T10:04:24;101190.13;;;-0.82;100.00
49779;BME280;36217;60.232;24.776;2023-01-28T10:07:04;101178.95;;;-0.53;100.00
49779;BME280;36217;60.232;24.776;2023-01-28T10:09:44;101178.23;;;-0.83;100.00
49779;BME280;36217;60.232;24.776;2023-01-28T10:12:26;101167.16;;;-0.66;100.00
49779;BME280;36217;60.232;24.776;2023-01-28T10:15:12;101162.61;;;-0.89;100.00
49779;BME280;36217;60.232;24.776;2023-01-28T10:17:45;101165.60;;;-0.37;100.00
49779;BME280;36217;60.232;24.776;2023-01-28T10:20:19;101154.85;;;-0.66;100.00
49779;BME280;36217;60.232;24.776;2023-01-28T10:22:50;101157.92;;;-0.38;100.00
49779;BME280;36217;60.232;24.776;2023-01-28T10:25:20;101140.73;;;-0.90;100.00
49779;BME280;36217;60.232;24.776;2023-01-28T10:27:50;101124.68;;;-0.74;100.00
49779;BME280;36217;60.232;24.776;2023-01-28T10:30:19;101115.04;;;-0.38;100.00
49779;BME280;36217;60.232;24.776;2023-01-28T10:32:51;101102.10;;;-0.99;100.00
49779;BME280;36217;60.232;24.776;2023-01-28T10:35:18;101086.79;;;-0.67;100.00
49779;BME280;36217;60.232;24.776;2023-01-28T10:38:01;101085.51;;;-0.63;100.00
49779;BME280;36217;60.232;24.776;2023-01-28T10:40:32;101075.12;;;-0.65;100.00
49779;BME280;36217;60.232;24.776;2023-01-28T10:43:00;101076.27;;;-0.70;100.00
49779;BME280;36217;60.232;24.776;2023-01-28T10:45:30;101063.66;;;-0.60;100.00
49779;BME280;36217;60.232;24.776;2023-01-28T10:48:04;101060.87;;;-0.80;100.00
49779;BME280;36217;60.232;24.776;2023-01-28T10:50:49;101051.13;;;-0.58;100.00
49779;BME280;36217;60.232;24.776;2023-01-28T10:53:17;101057.40;;;-0.91;100.00
49779;BME280;36217;60.232;24.776;2023-01-28T10:55:49;101052.01;;;-0.65;100.00
49779;BME280;36217;60.232;24.776;2023-01-28T10:58:20;101046.67;;;-0.66;100.00
49779;BME280;36217;60.232;24.776;2023-01-28T11:00:52;101046.69;;;-0.91;100.00
49779;BME280;36217;60.232;24.776;2023-01-28T11:03:20;101042.70;;;-0.54;100.00
49779;BME280;36217;60.232;24.776;2023-01-28T11:05:50;101025.11;;;-0.59;100.00
49779;BME280;36217;60.232;24.776;2023-01-28T11:08:19;101025.32;;;-0.39;100.00
49779;BME280;36217;60.232;24.776;2023-01-28T11:10:47;101019.72;;;-0.90;100.00
49779;BME280;36217;60.232;24.776;2023-01-28T11:13:16;101012.04;;;-0.57;100.00
49779;BME280;36217;60.232;24.776;2023-01-28T11:15:46;101008.60;;;-0.78;100.00
49779;BME280;36217;60.232;24.776;2023-01-28T11:18:17;100995.38;;;0.87;100.00
49779;BME280;36217;60.232;24.776;2023-01-28T11:20:50;100988.68;;;0.68;100.00
49779;BME280;36217;60.232;24.776;2023-01-28T11:23:21;100989.18;;;0.01;100.00
49779;BME280;36217;60.232;24.776;2023-01-28T11:25:59;100989.27;;;0.08;100.00
49779;BME280;36217;60.232;24.776;2023-01-28T11:28:28;100981.42;;;-0.45;100.00
49779;BME280;36217;60.232;24.776;2023-01-28T11:30:57;100968.87;;;-0.31;100.00
49779;BME280;36217;60.232;24.776;2023-01-28T11:33:30;100971.65;;;-0.35;100.00
49779;BME280;36217;60.232;24.776;2023-01-28T11:36:05;100967.42;;;-0.58;100.00
49779;BME280;36217;60.232;24.776;2023-01-28T11:38:33;100959.79;;;-0.57;100.00
49779;BME280;36217;60.232;24.776;2023-01-28T11:41:00;100954.94;;;-0.59;100.00
49779;BME280;36217;60.232;24.776;2023-01-28T11:43:29;100951.56;;;-0.60;100.00
49779;BME280;36217;60.232;24.776;2023-01-28T11:46:03;100943.59;;;-0.39;100.00
49779;BME280;36217;60.232;24.776;2023-01-28T11:48:43;100929.28;;;-0.38;100.00
49779;BME280;36217;60.232;24.776;2023-01-28T11:51:28;100930.17;;;-0.52;100.00
49779;BME280;36217;60.232;24.776;2023-01-28T11:54:06;100917.62;;;-0.65;100.00
49779;BME280;36217;60.232;24.776;2023-01-28T11:56:48;100914.19;;;-0.45;100.00
49779;BME280;36217;60.232;24.776;2023-01-28T11:59:34;100914.65;;;-0.91;100.00
49779;BME280;36217;60.232;24.776;2023-01-28T12:02:19;100910.22;;;-0.80;100.00
49779;BME280;36217;60.232;24.776;2023-01-28T12:05:07;100897.97;;;-0.57;100.00
49779;BME280;36217;60.232;24.776;2023-01-28T12:07:55;100905.42;;;-0.60;100.00
49779;BME280;36217;60.232;24.776;2023-01-28T12:10:28;100902.62;;;-0.86;100.00
49779;BME280;36217;60.232;24.776;2023-01-28T12:13:08;100908.33;;;-0.68;100.00
49779;BME280;36217;60.232;24.776;2023-01-28T12:16:02;100894.21;;;-0.70;100.00
49779;BME280;36217;60.232;24.776;2023-01-28T12:19:02;100900.71;;;-0.99;100.00
49779;BME280;36217;60.232;24.776;2023-01-28T12:21:47;100892.68;;;-0.61;100.00
49779;BME280;36217;60.232;24.776;2023-01-28T12:24:29;100887.75;;;-0.57;100.00
49779;BME280;36217;60.232;24.776;2023-01-28T12:27:04;100889.89;;;-0.75;100.00
49779;BME280;36217;60.232;24.776;2023-01-28T12:29:53;100881.44;;;-0.65;100.00
49779;BME280;36217;60.232;24.776;2023-01-28T12:32:37;100885.43;;;-0.97;100.00
49779;BME280;36217;60.232;24.776;2023-01-28T12:35:52;100879.58;;;-0.83;100.00
49779;BME280;36217;60.232;24.776;2023-01-28T12:38:30;100872.91;;;-0.61;100.00
49779;BME280;36217;60.232;24.776;2023-01-28T12:41:06;100873.28;;;-0.61;100.00
49779;BME280;36217;60.232;24.776;2023-01-28T12:43:44;100860.69;;;-0.64;100.00
49779;BME280;36217;60.232;24.776;2023-01-28T12:46:21;100852.32;;;-0.50;100.00
49779;BME280;36217;60.232;24.776;2023-01-28T12:48:54;100842.44;;;-0.59;100.00